Etusivu
METAR-TAF:

METAR-TAF

Lentoasemat :

Moose Lake Carlton County Airport

Moose Lake, Minnesota, Yhdysvallat

Leveyspiiri: 46-25N, Pituuspiiri: 092-48W, korkeus merenpinnasta: 328 m

Tämänhetkinen sää

Tämä raportti tehtiin 12 minuuttia sitten, kello 10.36 UTC
Tuuli 5 kn etelästä/lounaasta
Lämpötila 1°C
Kosteus 93%
Ilmanpaine 1011 hPa
Näkyvyys: 2.0 km
Pilvistä 300 ft:n korkeudessa
utua

METAR: KMZH 171036Z AUTO 21005KT 1 1/4SM BR OVC003 01/00 A2984 RMK AO2

Aika: 04:48 (10:48 UTC)


TAF: puuttuu

Säähavainnot ja -ennusteet yli 4000 lentoasemalta (METAR- ja TAF-raportit).

Käytössä olevat sääasemat on merkitty karttaan keltaisilla ja punaisilla pisteillä.

Aseta hiiri pisteen päälle nähdäksesi sääaseman nimen.

Klikkaa sitten nähdäksesi säähavainnot ja -ennusteet.

Kartan vaihtaminen: klikkaa mustalla rastilla varustettuja vihreitä pisteitä, niin voit zoomata sisään; viivalla varustettua vihreää pistettä, niin voit zoomata ulos tai vihreitä nuolia, niin pääset viereisille kartoille.


METAR-TAF: